sensor_id;sensor_type;location;lat;lon;timestamp;pressure;altitude;pressure_sealevel;temperature;humidity
18504;BME280;9381;54.244;10.074;2024-02-26T00:02:49;99906.66;;;4.77;100.00
18504;BME280;9381;54.244;10.074;2024-02-26T00:07:49;99919.00;;;4.78;100.00
18504;BME280;9381;54.244;10.074;2024-02-26T00:12:50;99922.72;;;4.77;100.00
18504;BME280;9381;54.244;10.074;2024-02-26T00:17:50;99923.91;;;4.68;100.00
18504;BME280;9381;54.244;10.074;2024-02-26T00:22:50;99932.97;;;4.67;100.00
18504;BME280;9381;54.244;10.074;2024-02-26T00:27:51;99930.13;;;4.68;100.00
18504;BME280;9381;54.244;10.074;2024-02-26T00:32:51;99924.38;;;4.78;100.00
18504;BME280;9381;54.244;10.074;2024-02-26T00:37:51;99922.97;;;4.82;100.00
18504;BME280;9381;54.244;10.074;2024-02-26T00:42:52;99937.16;;;4.76;100.00
18504;BME280;9381;54.244;10.074;2024-02-26T00:47:52;99932.16;;;4.66;100.00
18504;BME280;9381;54.244;10.074;2024-02-26T00:52:52;99932.53;;;4.63;100.00
18504;BME280;9381;54.244;10.074;2024-02-26T00:57:53;99942.59;;;4.55;100.00
18504;BME280;9381;54.244;10.074;2024-02-26T01:02:53;99945.06;;;4.56;100.00
18504;BME280;9381;54.244;10.074;2024-02-26T01:07:53;99949.72;;;4.75;100.00
18504;BME280;9381;54.244;10.074;2024-02-26T01:12:54;99955.13;;;4.82;100.00
18504;BME280;9381;54.244;10.074;2024-02-26T01:17:54;99949.63;;;5.03;100.00
18504;BME280;9381;54.244;10.074;2024-02-26T01:22:54;99952.59;;;5.21;100.00
18504;BME280;9381;54.244;10.074;2024-02-26T01:27:55;99959.66;;;5.35;100.00
18504;BME280;9381;54.244;10.074;2024-02-26T01:32:55;99959.25;;;5.38;100.00
18504;BME280;9381;54.244;10.074;2024-02-26T01:37:56;99955.97;;;5.49;100.00
18504;BME280;9381;54.244;10.074;2024-02-26T01:42:57;99952.06;;;5.45;100.00
18504;BME280;9381;54.244;10.074;2024-02-26T01:47:59;99957.00;;;5.35;100.00
18504;BME280;9381;54.244;10.074;2024-02-26T01:52:59;99957.97;;;5.21;100.00
18504;BME280;9381;54.244;10.074;2024-02-26T01:58:00;99958.31;;;5.05;100.00
18504;BME280;9381;54.244;10.074;2024-02-26T02:03:02;99965.25;;;4.93;100.00
18504;BME280;9381;54.244;10.074;2024-02-26T02:08:04;99959.00;;;4.79;100.00
18504;BME280;9381;54.244;10.074;2024-02-26T02:13:05;99964.56;;;4.78;100.00
18504;BME280;9381;54.244;10.074;2024-02-26T02:18:06;99972.13;;;4.68;100.00
18504;BME280;9381;54.244;10.074;2024-02-26T02:23:06;99974.31;;;4.58;100.00
18504;BME280;9381;54.244;10.074;2024-02-26T02:28:07;99978.22;;;4.55;100.00
18504;BME280;9381;54.244;10.074;2024-02-26T02:33:07;99976.38;;;4.56;100.00
18504;BME280;9381;54.244;10.074;2024-02-26T02:38:08;99978.16;;;4.42;100.00
18504;BME280;9381;54.244;10.074;2024-02-26T02:43:08;99976.94;;;4.45;100.00
18504;BME280;9381;54.244;10.074;2024-02-26T02:48:08;99977.31;;;4.42;100.00
18504;BME280;9381;54.244;10.074;2024-02-26T02:53:09;99982.00;;;4.33;100.00
18504;BME280;9381;54.244;10.074;2024-02-26T02:58:10;99984.25;;;4.36;100.00
18504;BME280;9381;54.244;10.074;2024-02-26T03:03:10;99995.38;;;4.33;100.00
18504;BME280;9381;54.244;10.074;2024-02-26T03:08:11;99994.03;;;4.23;100.00
18504;BME280;9381;54.244;10.074;2024-02-26T03:13:11;99993.19;;;4.16;100.00
18504;BME280;9381;54.244;10.074;2024-02-26T03:18:11;99996.75;;;4.02;100.00
18504;BME280;9381;54.244;10.074;2024-02-26T03:23:12;100000.19;;;4.17;100.00
18504;BME280;9381;54.244;10.074;2024-02-26T03:28:15;100000.56;;;4.14;100.00
18504;BME280;9381;54.244;10.074;2024-02-26T03:33:15;100007.81;;;4.20;100.00
18504;BME280;9381;54.244;10.074;2024-02-26T03:38:16;100013.97;;;4.41;100.00
18504;BME280;9381;54.244;10.074;2024-02-26T03:43:16;100016.47;;;4.43;100.00
18504;BME280;9381;54.244;10.074;2024-02-26T03:48:17;100016.94;;;4.53;100.00
18504;BME280;9381;54.244;10.074;2024-02-26T03:53:17;100024.25;;;4.38;100.00
18504;BME280;9381;54.244;10.074;2024-02-26T03:58:18;100038.53;;;4.24;100.00
18504;BME280;9381;54.244;10.074;2024-02-26T04:03:18;100037.44;;;4.18;100.00
18504;BME280;9381;54.244;10.074;2024-02-26T04:08:18;100044.16;;;4.08;100.00
18504;BME280;9381;54.244;10.074;2024-02-26T04:13:19;100052.94;;;4.02;100.00
18504;BME280;9381;54.244;10.074;2024-02-26T04:18:19;100056.13;;;4.12;100.00
18504;BME280;9381;54.244;10.074;2024-02-26T04:23:20;100067.16;;;4.23;100.00
18504;BME280;9381;54.244;10.074;2024-02-26T04:28:20;100065.81;;;4.13;100.00
18504;BME280;9381;54.244;10.074;2024-02-26T04:33:21;100065.03;;;4.19;100.00
18504;BME280;9381;54.244;10.074;2024-02-26T04:38:21;100073.13;;;4.25;100.00
18504;BME280;9381;54.244;10.074;2024-02-26T04:43:22;100089.25;;;4.32;100.00
18504;BME280;9381;54.244;10.074;2024-02-26T04:48:22;100090.78;;;4.20;100.00
18504;BME280;9381;54.244;10.074;2024-02-26T04:53:23;100092.50;;;4.27;100.00
18504;BME280;9381;54.244;10.074;2024-02-26T04:58:23;100108.09;;;4.24;100.00
18504;BME280;9381;54.244;10.074;2024-02-26T05:03:23;100109.78;;;4.25;100.00
18504;BME280;9381;54.244;10.074;2024-02-26T05:08:24;100131.88;;;4.12;100.00
18504;BME280;9381;54.244;10.074;2024-02-26T05:13:24;100121.34;;;3.90;100.00
18504;BME280;9381;54.244;10.074;2024-02-26T05:18:24;100129.47;;;3.82;100.00
18504;BME280;9381;54.244;10.074;2024-02-26T05:23:26;100140.66;;;3.71;99.57
18504;BME280;9381;54.244;10.074;2024-02-26T05:28:26;100139.84;;;3.56;99.56
18504;BME280;9381;54.244;10.074;2024-02-26T05:33:26;100142.41;;;3.64;100.00
18504;BME280;9381;54.244;10.074;2024-02-26T05:38:27;100142.13;;;3.73;100.00
18504;BME280;9381;54.244;10.074;2024-02-26T05:43:27;100145.47;;;3.75;100.00
18504;BME280;9381;54.244;10.074;2024-02-26T05:48:28;100161.84;;;3.72;100.00
18504;BME280;9381;54.244;10.074;2024-02-26T05:53:28;100163.88;;;3.70;100.00
18504;BME280;9381;54.244;10.074;2024-02-26T05:58:29;100171.00;;;3.63;99.62
18504;BME280;9381;54.244;10.074;2024-02-26T06:03:29;100177.66;;;3.53;98.82
18504;BME280;9381;54.244;10.074;2024-02-26T06:08:29;100182.25;;;3.59;100.00
18504;BME280;9381;54.244;10.074;2024-02-26T06:13:30;100190.06;;;3.75;100.00
18504;BME280;9381;54.244;10.074;2024-02-26T06:18:32;100195.16;;;3.70;100.00
18504;BME280;9381;54.244;10.074;2024-02-26T06:23:32;100204.63;;;3.72;100.00
18504;BME280;9381;54.244;10.074;2024-02-26T06:28:32;100215.53;;;3.71;99.98
18504;BME280;9381;54.244;10.074;2024-02-26T06:33:33;100216.44;;;3.63;99.42
18504;BME280;9381;54.244;10.074;2024-02-26T06:38:34;100221.06;;;3.55;99.20
18504;BME280;9381;54.244;10.074;2024-02-26T06:43:34;100226.69;;;3.60;99.94
18504;BME280;9381;54.244;10.074;2024-02-26T06:48:34;100231.31;;;3.66;99.21
18504;BME280;9381;54.244;10.074;2024-02-26T06:53:36;100234.63;;;3.68;100.00
18504;BME280;9381;54.244;10.074;2024-02-26T06:58:37;100243.75;;;3.73;99.37
18504;BME280;9381;54.244;10.074;2024-02-26T07:03:37;100251.97;;;3.72;100.00
18504;BME280;9381;54.244;10.074;2024-02-26T07:08:40;100251.03;;;3.94;100.00
18504;BME280;9381;54.244;10.074;2024-02-26T07:13:40;100251.47;;;4.12;100.00
18504;BME280;9381;54.244;10.074;2024-02-26T07:18:40;100267.56;;;4.33;100.00
18504;BME280;9381;54.244;10.074;2024-02-26T07:23:41;100262.41;;;4.46;100.00
18504;BME280;9381;54.244;10.074;2024-02-26T07:28:41;100265.47;;;4.64;100.00
18504;BME280;9381;54.244;10.074;2024-02-26T07:33:41;100282.94;;;4.60;100.00
18504;BME280;9381;54.244;10.074;2024-02-26T07:38:42;100287.25;;;4.61;100.00
18504;BME280;9381;54.244;10.074;2024-02-26T07:43:42;100287.34;;;4.32;100.00
18504;BME280;9381;54.244;10.074;2024-02-26T07:48:43;100289.63;;;4.49;100.00
18504;BME280;9381;54.244;10.074;2024-02-26T07:53:43;100300.88;;;4.59;100.00
18504;BME280;9381;54.244;10.074;2024-02-26T07:58:44;100307.88;;;4.60;100.00
18504;BME280;9381;54.244;10.074;2024-02-26T08:03:44;100318.84;;;4.80;100.00
18504;BME280;9381;54.244;10.074;2024-02-26T08:08:44;100329.00;;;4.70;100.00
18504;BME280;9381;54.244;10.074;2024-02-26T08:13:45;100329.16;;;4.83;100.00
18504;BME280;9381;54.244;10.074;2024-02-26T08:18:45;100338.56;;;4.79;100.00
18504;BME280;9381;54.244;10.074;2024-02-26T08:23:45;100348.19;;;4.73;100.00
18504;BME280;9381;54.244;10.074;2024-02-26T08:28:46;100358.06;;;4.87;100.00
18504;BME280;9381;54.244;10.074;2024-02-26T08:33:47;100355.63;;;4.92;100.00
18504;BME280;9381;54.244;10.074;2024-02-26T08:38:48;100354.22;;;4.75;100.00
18504;BME280;9381;54.244;10.074;2024-02-26T08:43:48;100362.97;;;4.84;100.00
18504;BME280;9381;54.244;10.074;2024-02-26T08:48:48;100370.38;;;4.82;100.00
18504;BME280;9381;54.244;10.074;2024-02-26T08:53:49;100371.19;;;4.82;100.00
18504;BME280;9381;54.244;10.074;2024-02-26T08:58:51;100367.19;;;4.93;100.00
18504;BME280;9381;54.244;10.074;2024-02-26T09:03:53;100375.50;;;4.98;100.00
18504;BME280;9381;54.244;10.074;2024-02-26T09:08:54;100373.41;;;4.93;100.00
18504;BME280;9381;54.244;10.074;2024-02-26T09:13:54;100384.06;;;4.58;100.00
18504;BME280;9381;54.244;10.074;2024-02-26T09:18:54;100390.69;;;4.91;100.00
18504;BME280;9381;54.244;10.074;2024-02-26T09:23:55;100391.34;;;5.14;100.00
18504;BME280;9381;54.244;10.074;2024-02-26T09:28:55;100383.69;;;5.32;100.00
18504;BME280;9381;54.244;10.074;2024-02-26T09:33:55;100376.81;;;5.44;100.00
18504;BME280;9381;54.244;10.074;2024-02-26T09:38:56;100394.22;;;5.54;100.00
18504;BME280;9381;54.244;10.074;2024-02-26T09:43:57;100402.09;;;5.56;100.00
18504;BME280;9381;54.244;10.074;2024-02-26T09:48:58;100403.16;;;5.61;100.00
18504;BME280;9381;54.244;10.074;2024-02-26T09:53:59;100403.16;;;5.61;100.00
18504;BME280;9381;54.244;10.074;2024-02-26T09:59:02;100410.50;;;5.94;100.00
18504;BME280;9381;54.244;10.074;2024-02-26T10:04:06;100418.16;;;5.97;100.00
18504;BME280;9381;54.244;10.074;2024-02-26T10:09:08;100425.31;;;6.11;100.00
18504;BME280;9381;54.244;10.074;2024-02-26T10:14:09;100420.09;;;6.31;100.00
18504;BME280;9381;54.244;10.074;2024-02-26T10:19:24;100433.69;;;6.29;100.00
18504;BME280;9381;54.244;10.074;2024-02-26T10:24:25;100442.63;;;6.36;100.00
18504;BME280;9381;54.244;10.074;2024-02-26T10:29:25;100445.31;;;6.36;100.00
18504;BME280;9381;54.244;10.074;2024-02-26T10:34:26;100452.38;;;6.44;100.00
18504;BME280;9381;54.244;10.074;2024-02-26T10:39:26;100459.09;;;6.27;100.00
18504;BME280;9381;54.244;10.074;2024-02-26T10:44:27;100464.75;;;6.38;100.00
18504;BME280;9381;54.244;10.074;2024-02-26T10:49:27;100467.78;;;6.56;100.00
18504;BME280;9381;54.244;10.074;2024-02-26T10:54:29;100470.91;;;6.94;100.00
18504;BME280;9381;54.244;10.074;2024-02-26T10:59:32;100469.81;;;6.88;100.00
18504;BME280;9381;54.244;10.074;2024-02-26T11:04:33;100472.84;;;6.72;100.00
18504;BME280;9381;54.244;10.074;2024-02-26T11:09:34;100482.47;;;6.94;100.00
18504;BME280;9381;54.244;10.074;2024-02-26T11:14:36;100477.97;;;7.08;100.00
18504;BME280;9381;54.244;10.074;2024-02-26T11:19:39;100472.88;;;7.19;100.00
18504;BME280;9381;54.244;10.074;2024-02-26T11:24:41;100472.00;;;7.12;100.00
18504;BME280;9381;54.244;10.074;2024-02-26T11:29:51;100474.59;;;6.93;100.00
18504;BME280;9381;54.244;10.074;2024-02-26T11:34:54;100482.41;;;7.28;100.00
18504;BME280;9381;54.244;10.074;2024-02-26T11:39:54;100486.22;;;7.06;100.00
18504;BME280;9381;54.244;10.074;2024-02-26T11:44:55;100490.56;;;7.07;100.00
18504;BME280;9381;54.244;10.074;2024-02-26T11:50:36;100490.88;;;7.25;100.00
18504;BME280;9381;54.244;10.074;2024-02-26T11:55:37;100493.75;;;7.17;100.00
18504;BME280;9381;54.244;10.074;2024-02-26T12:00:39;100500.31;;;7.55;100.00
18504;BME280;9381;54.244;10.074;2024-02-26T12:05:41;100502.91;;;7.36;100.00
18504;BME280;9381;54.244;10.074;2024-02-26T12:10:42;100503.06;;;7.81;100.00
18504;BME280;9381;54.244;10.074;2024-02-26T12:16:06;100500.19;;;8.09;100.00
18504;BME280;9381;54.244;10.074;2024-02-26T12:21:05;100507.88;;;8.63;100.00
18504;BME280;9381;54.244;10.074;2024-02-26T12:26:06;100505.56;;;8.80;100.00
18504;BME280;9381;54.244;10.074;2024-02-26T12:31:06;100510.88;;;9.12;100.00
18504;BME280;9381;54.244;10.074;2024-02-26T12:36:07;100509.22;;;9.11;97.06
18504;BME280;9381;54.244;10.074;2024-02-26T12:41:07;100513.72;;;9.37;95.70
18504;BME280;9381;54.244;10.074;2024-02-26T12:46:08;100511.53;;;9.14;94.62
18504;BME280;9381;54.244;10.074;2024-02-26T12:51:08;100520.63;;;9.20;95.02
18504;BME280;9381;54.244;10.074;2024-02-26T12:56:11;100530.41;;;9.08;94.40
18504;BME280;9381;54.244;10.074;2024-02-26T13:01:15;100530.41;;;9.08;93.99
18504;BME280;9381;54.244;10.074;2024-02-26T13:06:17;100536.06;;;8.80;94.70
18504;BME280;9381;54.244;10.074;2024-02-26T13:11:18;100541.66;;;8.92;95.68
18504;BME280;9381;54.244;10.074;2024-02-26T13:16:18;100539.09;;;9.23;95.20
18504;BME280;9381;54.244;10.074;2024-02-26T13:21:19;100549.28;;;9.21;93.71
18504;BME280;9381;54.244;10.074;2024-02-26T13:26:21;100564.00;;;9.18;93.43
18504;BME280;9381;54.244;10.074;2024-02-26T13:31:23;100573.56;;;9.08;94.28
18504;BME280;9381;54.244;10.074;2024-02-26T13:36:24;100578.19;;;8.75;95.52
18504;BME280;9381;54.244;10.074;2024-02-26T13:41:25;100587.94;;;8.82;95.21
18504;BME280;9381;54.244;10.074;2024-02-26T13:46:26;100592.69;;;9.00;94.11
18504;BME280;9381;54.244;10.074;2024-02-26T13:51:26;100600.59;;;8.82;94.77
18504;BME280;9381;54.244;10.074;2024-02-26T13:56:27;100592.28;;;8.96;93.95
18504;BME280;9381;54.244;10.074;2024-02-26T14:01:27;100605.34;;;8.80;95.03
18504;BME280;9381;54.244;10.074;2024-02-26T14:06:28;100605.16;;;8.94;95.91
18504;BME280;9381;54.244;10.074;2024-02-26T14:11:29;100608.25;;;8.91;95.49
18504;BME280;9381;54.244;10.074;2024-02-26T14:16:29;100614.47;;;8.72;95.68
18504;BME280;9381;54.244;10.074;2024-02-26T14:21:29;100622.16;;;8.69;95.99
18504;BME280;9381;54.244;10.074;2024-02-26T14:26:30;100621.31;;;8.56;95.90
18504;BME280;9381;54.244;10.074;2024-02-26T14:31:30;100619.66;;;8.48;97.04
18504;BME280;9381;54.244;10.074;2024-02-26T14:36:31;100624.19;;;8.48;97.25
18504;BME280;9381;54.244;10.074;2024-02-26T14:41:31;100625.47;;;8.58;98.16
18504;BME280;9381;54.244;10.074;2024-02-26T14:46:32;100619.25;;;8.70;97.81
18504;BME280;9381;54.244;10.074;2024-02-26T14:51:32;100623.81;;;8.70;97.16
18504;BME280;9381;54.244;10.074;2024-02-26T14:56:33;100643.69;;;8.43;97.05
18504;BME280;9381;54.244;10.074;2024-02-26T15:01:33;100645.78;;;8.54;97.20
18504;BME280;9381;54.244;10.074;2024-02-26T15:06:33;100645.38;;;8.57;97.21
18504;BME280;9381;54.244;10.074;2024-02-26T15:11:38;100661.34;;;8.59;96.67
18504;BME280;9381;54.244;10.074;2024-02-26T15:16:39;100646.22;;;8.64;96.02
18504;BME280;9381;54.244;10.074;2024-02-26T15:21:44;100660.88;;;8.42;97.22
18504;BME280;9381;54.244;10.074;2024-02-26T15:26:45;100662.72;;;8.35;96.98
18504;BME280;9381;54.244;10.074;2024-02-26T15:31:46;100669.59;;;8.38;97.53
18504;BME280;9381;54.244;10.074;2024-02-26T15:36:46;100677.31;;;8.54;97.69
18504;BME280;9381;54.244;10.074;2024-02-26T15:41:46;100683.91;;;8.51;97.69
18504;BME280;9381;54.244;10.074;2024-02-26T15:46:47;100690.16;;;8.52;97.11
18504;BME280;9381;54.244;10.074;2024-02-26T15:51:47;100706.31;;;8.45;97.01
18504;BME280;9381;54.244;10.074;2024-02-26T15:56:47;100713.09;;;8.28;98.54
18504;BME280;9381;54.244;10.074;2024-02-26T16:01:48;100718.22;;;8.17;99.81
18504;BME280;9381;54.244;10.074;2024-02-26T16:06:51;100726.44;;;8.09;100.00
18504;BME280;9381;54.244;10.074;2024-02-26T16:11:54;100742.19;;;8.05;100.00
18504;BME280;9381;54.244;10.074;2024-02-26T16:17:04;100743.84;;;8.06;100.00
18504;BME280;9381;54.244;10.074;2024-02-26T16:22:08;100750.78;;;7.81;100.00
18504;BME280;9381;54.244;10.074;2024-02-26T16:27:08;100755.13;;;7.82;100.00
18504;BME280;9381;54.244;10.074;2024-02-26T16:32:08;100756.53;;;7.78;100.00
18504;BME280;9381;54.244;10.074;2024-02-26T16:37:10;100771.22;;;7.76;100.00
18504;BME280;9381;54.244;10.074;2024-02-26T16:42:10;100775.53;;;7.70;100.00
18504;BME280;9381;54.244;10.074;2024-02-26T16:47:14;100793.22;;;7.52;100.00
18504;BME280;9381;54.244;10.074;2024-02-26T16:52:15;100797.03;;;7.36;100.00
18504;BME280;9381;54.244;10.074;2024-02-26T16:57:16;100794.97;;;7.38;100.00
18504;BME280;9381;54.244;10.074;2024-02-26T17:02:19;100792.28;;;7.38;100.00
18504;BME280;9381;54.244;10.074;2024-02-26T17:07:20;100808.56;;;7.30;100.00
18504;BME280;9381;54.244;10.074;2024-02-26T17:12:21;100819.31;;;7.30;100.00
18504;BME280;9381;54.244;10.074;2024-02-26T17:17:22;100835.59;;;7.22;100.00
18504;BME280;9381;54.244;10.074;2024-02-26T17:22:22;100842.44;;;7.25;100.00
18504;BME280;9381;54.244;10.074;2024-02-26T17:27:25;100847.03;;;7.10;100.00
18504;BME280;9381;54.244;10.074;2024-02-26T17:32:25;100844.56;;;7.08;100.00
18504;BME280;9381;54.244;10.074;2024-02-26T17:37:26;100858.16;;;6.86;100.00
18504;BME280;9381;54.244;10.074;2024-02-26T17:42:26;100867.69;;;6.88;100.00
18504;BME280;9381;54.244;10.074;2024-02-26T17:47:27;100875.88;;;6.80;100.00
18504;BME280;9381;54.244;10.074;2024-02-26T17:52:27;100893.00;;;6.79;100.00
18504;BME280;9381;54.244;10.074;2024-02-26T17:57:27;100890.06;;;6.74;100.00
18504;BME280;9381;54.244;10.074;2024-02-26T18:02:28;100885.16;;;6.78;100.00
18504;BME280;9381;54.244;10.074;2024-02-26T18:07:28;100893.25;;;6.63;100.00
18504;BME280;9381;54.244;10.074;2024-02-26T18:12:29;100880.63;;;6.64;100.00
18504;BME280;9381;54.244;10.074;2024-02-26T18:17:32;100883.88;;;6.59;100.00
18504;BME280;9381;54.244;10.074;2024-02-26T18:22:32;100889.81;;;6.55;100.00
18504;BME280;9381;54.244;10.074;2024-02-26T18:27:33;100901.03;;;6.58;100.00
18504;BME280;9381;54.244;10.074;2024-02-26T18:32:35;100907.50;;;6.64;100.00
18504;BME280;9381;54.244;10.074;2024-02-26T18:37:35;100916.31;;;6.72;100.00
18504;BME280;9381;54.244;10.074;2024-02-26T18:42:36;100921.69;;;6.72;100.00
18504;BME280;9381;54.244;10.074;2024-02-26T18:47:39;100920.47;;;6.60;100.00
18504;BME280;9381;54.244;10.074;2024-02-26T18:52:39;100931.22;;;6.60;100.00
18504;BME280;9381;54.244;10.074;2024-02-26T18:57:40;100932.00;;;6.54;100.00
18504;BME280;9381;54.244;10.074;2024-02-26T19:02:41;100941.63;;;6.63;100.00
18504;BME280;9381;54.244;10.074;2024-02-26T19:07:42;100950.25;;;6.59;100.00
18504;BME280;9381;54.244;10.074;2024-02-26T19:12:42;100954.84;;;6.65;100.00
18504;BME280;9381;54.244;10.074;2024-02-26T19:17:44;100966.72;;;6.56;100.00
18504;BME280;9381;54.244;10.074;2024-02-26T19:22:46;100967.19;;;6.59;100.00
18504;BME280;9381;54.244;10.074;2024-02-26T19:27:47;100958.88;;;6.54;100.00
18504;BME280;9381;54.244;10.074;2024-02-26T19:32:47;100965.13;;;6.61;100.00
18504;BME280;9381;54.244;10.074;2024-02-26T19:37:48;100968.84;;;6.60;100.00
18504;BME280;9381;54.244;10.074;2024-02-26T19:42:48;100979.59;;;6.60;100.00
18504;BME280;9381;54.244;10.074;2024-02-26T19:47:49;100987.56;;;6.54;100.00
18504;BME280;9381;54.244;10.074;2024-02-26T19:52:49;100987.56;;;6.54;100.00
18504;BME280;9381;54.244;10.074;2024-02-26T19:57:51;100995.16;;;6.50;100.00
18504;BME280;9381;54.244;10.074;2024-02-26T20:02:51;101000.63;;;6.42;100.00
18504;BME280;9381;54.244;10.074;2024-02-26T20:07:51;100998.31;;;6.39;100.00
18504;BME280;9381;54.244;10.074;2024-02-26T20:12:52;101002.28;;;6.43;100.00
18504;BME280;9381;54.244;10.074;2024-02-26T20:17:55;101007.38;;;6.38;100.00
18504;BME280;9381;54.244;10.074;2024-02-26T20:22:55;101011.75;;;6.39;100.00
18504;BME280;9381;54.244;10.074;2024-02-26T20:27:56;101017.50;;;6.36;100.00
18504;BME280;9381;54.244;10.074;2024-02-26T20:32:56;101037.00;;;6.30;100.00
18504;BME280;9381;54.244;10.074;2024-02-26T20:37:56;101028.88;;;6.38;100.00
18504;BME280;9381;54.244;10.074;2024-02-26T20:42:56;101034.72;;;6.42;100.00
18504;BME280;9381;54.244;10.074;2024-02-26T20:47:57;101037.72;;;6.24;100.00
18504;BME280;9381;54.244;10.074;2024-02-26T20:52:57;101036.25;;;6.22;100.00
18504;BME280;9381;54.244;10.074;2024-02-26T20:57:58;101037.84;;;6.31;100.00
18504;BME280;9381;54.244;10.074;2024-02-26T21:02:59;101042.94;;;6.26;100.00
18504;BME280;9381;54.244;10.074;2024-02-26T21:08:03;101053.06;;;6.38;100.00
18504;BME280;9381;54.244;10.074;2024-02-26T21:13:03;101062.31;;;6.36;100.00
18504;BME280;9381;54.244;10.074;2024-02-26T21:18:04;101070.91;;;6.31;100.00
18504;BME280;9381;54.244;10.074;2024-02-26T21:23:04;101075.94;;;6.34;100.00
18504;BME280;9381;54.244;10.074;2024-02-26T21:28:05;101077.06;;;6.40;100.00
18504;BME280;9381;54.244;10.074;2024-02-26T21:33:06;101071.88;;;6.38;100.00
18504;BME280;9381;54.244;10.074;2024-02-26T21:38:06;101081.31;;;6.34;100.00
18504;BME280;9381;54.244;10.074;2024-02-26T21:43:06;101083.69;;;6.29;100.00
18504;BME280;9381;54.244;10.074;2024-02-26T21:48:07;101085.63;;;6.21;100.00
18504;BME280;9381;54.244;10.074;2024-02-26T21:53:07;101099.22;;;6.19;100.00
18504;BME280;9381;54.244;10.074;2024-02-26T21:58:08;101109.31;;;6.17;100.00
18504;BME280;9381;54.244;10.074;2024-02-26T22:03:08;101111.03;;;6.10;100.00
18504;BME280;9381;54.244;10.074;2024-02-26T22:08:09;101121.06;;;6.16;100.00
18504;BME280;9381;54.244;10.074;2024-02-26T22:13:09;101126.66;;;6.07;100.00
18504;BME280;9381;54.244;10.074;2024-02-26T22:18:09;101135.38;;;6.09;100.00
18504;BME280;9381;54.244;10.074;2024-02-26T22:23:10;101135.50;;;6.15;100.00
18504;BME280;9381;54.244;10.074;2024-02-26T22:28:10;101138.50;;;6.20;100.00
18504;BME280;9381;54.244;10.074;2024-02-26T22:33:10;101137.78;;;6.26;100.00
18504;BME280;9381;54.244;10.074;2024-02-26T22:38:11;101153.06;;;6.48;100.00
18504;BME280;9381;54.244;10.074;2024-02-26T22:43:11;101159.94;;;6.51;100.00
18504;BME280;9381;54.244;10.074;2024-02-26T22:48:12;101157.22;;;6.73;100.00
18504;BME280;9381;54.244;10.074;2024-02-26T22:53:12;101154.47;;;6.81;100.00
18504;BME280;9381;54.244;10.074;2024-02-26T22:58:13;101155.75;;;6.85;100.00
18504;BME280;9381;54.244;10.074;2024-02-26T23:03:14;101154.81;;;6.78;100.00
18504;BME280;9381;54.244;10.074;2024-02-26T23:08:15;101158.81;;;6.82;100.00
18504;BME280;9381;54.244;10.074;2024-02-26T23:13:15;101155.63;;;6.64;100.00
18504;BME280;9381;54.244;10.074;2024-02-26T23:18:18;101171.22;;;6.46;100.00
18504;BME280;9381;54.244;10.074;2024-02-26T23:23:19;101175.63;;;6.62;100.00
18504;BME280;9381;54.244;10.074;2024-02-26T23:28:19;101172.75;;;6.63;100.00
18504;BME280;9381;54.244;10.074;2024-02-26T23:33:20;101174.06;;;6.67;100.00
18504;BME280;9381;54.244;10.074;2024-02-26T23:38:20;101180.13;;;6.61;100.00
18504;BME280;9381;54.244;10.074;2024-02-26T23:43:20;101178.53;;;6.52;100.00
18504;BME280;9381;54.244;10.074;2024-02-26T23:48:21;101185.78;;;6.52;100.00
18504;BME280;9381;54.244;10.074;2024-02-26T23:53:21;101191.03;;;6.45;100.00
18504;BME280;9381;54.244;10.074;2024-02-26T23:58:21;101202.25;;;6.26;100.00
